Time;durP1;ratioP1;P1;durP2;ratioP2;P2;SDS_P1;SDS_P2;PMS_P1;PMS_P2;Temp;Humidity;BMP_temperature;BMP_pressure;BME280_temperature;BME280_humidity;BME280_pressure;Samples;Min_cycle;Max_cycle;Signal;HPM_P1;HPM_P2
2022/08/09 06:00:17;;;;;;;5.63;3.50;;;;;;;;;;10588925;27;20403;-81
2022/08/09 06:05:18;;;;;;;7.95;3.70;;;;;;;;;;10591038;28;20032;-81
2022/08/09 06:10:20;;;;;;;5.00;3.05;;;;;;;;;;10588625;28;20039;-82
2022/08/09 06:15:27;;;;;;;7.70;2.88;;;;;;;;;;10589505;28;20059;-82
2022/08/09 06:20:28;;;;;;;3.78;2.53;;;;;;;;;;10594940;28;20084;-82
2022/08/09 06:25:29;;;;;;;6.22;3.08;;;;;;;;;;10594485;28;20019;-82
2022/08/09 06:30:49;;;;;;;4.68;2.92;;;;;;;;;;10587393;28;20028;-81
2022/08/09 06:35:50;;;;;;;5.55;3.60;;;;;;;;;;10585808;28;20031;-80
2022/08/09 06:40:51;;;;;;;7.18;3.20;;;;;;;;;;10585699;28;20024;-80
2022/08/09 06:45:52;;;;;;;6.93;4.30;;;;;;;;;;10588037;28;20020;-80
2022/08/09 06:50:54;;;;;;;9.35;3.03;;;;;;;;;;10591073;28;20030;-80
2022/08/09 06:55:55;;;;;;;6.60;2.90;;;;;;;;;;10589105;28;20038;-80
2022/08/09 07:00:57;;;;;;;4.72;3.42;;;;;;;;;;10594311;28;20024;-81
2022/08/09 07:05:58;;;;;;;5.35;2.15;;;;;;;;;;10590612;28;20020;-80
2022/08/09 07:11:01;;;;;;;3.55;2.38;;;;;;;;;;10558567;28;20055;-82
2022/08/09 07:16:04;;;;;;;5.68;2.90;;;;;;;;;;10551799;28;20355;-82
2022/08/09 07:21:05;;;;;;;5.00;2.40;;;;;;;;;;10554934;28;20020;-83
2022/08/09 07:26:06;;;;;;;4.03;1.95;;;;;;;;;;10558448;28;20052;-84
2022/08/09 07:31:07;;;;;;;6.60;3.10;;;;;;;;;;10563021;28;20081;-85
2022/08/09 07:36:08;;;;;;;5.03;2.70;;;;;;;;;;10557321;28;20028;-83
2022/08/09 07:41:09;;;;;;;4.55;3.03;;;;;;;;;;10563046;28;20020;-80
2022/08/09 07:46:10;;;;;;;5.60;4.47;;;;;;;;;;10561139;28;20454;-83
2022/08/09 07:51:11;;;;;;;6.90;4.57;;;;;;;;;;10561255;28;20013;-84
2022/08/09 07:56:14;;;;;;;4.38;3.22;;;;;;;;;;10487200;22;20068;-84
2022/08/09 08:01:15;;;;;;;7.15;3.00;;;;;;;;;;10451354;28;20113;-84
2022/08/09 08:06:16;;;;;;;5.40;3.35;;;;;;;;;;10486815;28;20070;-84
2022/08/09 08:11:19;;;;;;;10.13;4.38;;;;;;;;;;10477971;28;20471;-84
2022/08/09 08:16:40;;;;;;;4.53;2.67;;;;;;;;;;10472061;28;20499;-89
2022/08/09 08:21:41;;;;;;;7.25;2.60;;;;;;;;;;10471565;28;20490;-85
2022/08/09 08:26:44;;;;;;;8.00;3.17;;;;;;;;;;10479088;28;20052;-84
2022/08/09 08:31:46;;;;;;;10.90;3.05;;;;;;;;;;10480897;28;20620;-85
2022/08/09 08:37:03;;;;;;;5.05;2.30;;;;;;;;;;10485356;28;20040;-86
2022/08/09 08:42:07;;;;;;;7.55;3.10;;;;;;;;;;10478190;28;20018;-85
2022/08/09 08:47:15;;;;;;;4.35;2.53;;;;;;;;;;10480490;28;20029;-84
2022/08/09 08:52:20;;;;;;;6.13;2.50;;;;;;;;;;10502031;28;20056;-81
2022/08/09 08:57:26;;;;;;;10.10;6.20;;;;;;;;;;10478998;28;20044;-82
2022/08/09 09:02:32;;;;;;;5.82;2.80;;;;;;;;;;10478034;28;20029;-83
2022/08/09 09:07:37;;;;;;;6.70;2.65;;;;;;;;;;10477848;28;20163;-85
2022/08/09 09:12:40;;;;;;;4.47;2.63;;;;;;;;;;10479885;28;20025;-84
2022/08/09 09:17:42;;;;;;;4.75;2.22;;;;;;;;;;10471095;28;20028;-82
2022/08/09 09:22:51;;;;;;;7.68;2.60;;;;;;;;;;10474893;28;20093;-83
2022/08/09 09:27:59;;;;;;;19.65;15.73;;;;;;;;;;10471589;28;20029;-84
2022/08/09 09:33:05;;;;;;;8.40;5.07;;;;;;;;;;10473683;28;20025;-83
2022/08/09 09:38:09;;;;;;;5.38;3.08;;;;;;;;;;10473658;28;20032;-82
2022/08/09 09:43:20;;;;;;;7.80;3.13;;;;;;;;;;10475178;28;20055;-85
2022/08/09 09:48:22;;;;;;;4.13;2.42;;;;;;;;;;10475611;28;20025;-84
2022/08/09 09:53:25;;;;;;;6.03;2.60;;;;;;;;;;10493234;28;20032;-83
2022/08/09 09:58:44;;;;;;;4.15;2.88;;;;;;;;;;10498126;28;20036;-81
2022/08/09 10:03:49;;;;;;;5.80;2.93;;;;;;;;;;10495780;28;20029;-82
2022/08/09 10:08:52;;;;;;;4.45;2.92;;;;;;;;;;10477148;28;20073;-82
2022/08/09 10:13:54;;;;;;;5.82;2.80;;;;;;;;;;10473061;28;20028;-82
2022/08/09 10:18:55;;;;;;;7.07;2.67;;;;;;;;;;10474137;28;20025;-81
2022/08/09 10:24:00;;;;;;;7.65;2.80;;;;;;;;;;10471831;28;20051;-83
2022/08/09 10:29:01;;;;;;;5.43;3.15;;;;;;;;;;10473219;28;20112;-82
2022/08/09 10:34:02;;;;;;;6.43;4.70;;;;;;;;;;10470027;28;20035;-83
2022/08/09 10:39:04;;;;;;;4.35;2.60;;;;;;;;;;10471873;28;20029;-84
2022/08/09 10:44:05;;;;;;;7.28;3.30;;;;;;;;;;10475730;28;20044;-82
2022/08/09 10:49:21;;;;;;;5.18;3.17;;;;;;;;;;10499585;28;20029;-82
2022/08/09 10:54:23;;;;;;;4.40;2.78;;;;;;;;;;10477489;28;20100;-82
2022/08/09 10:59:26;;;;;;;5.72;2.88;;;;;;;;;;10483495;28;20094;-83
2022/08/09 11:04:28;;;;;;;8.90;2.80;;;;;;;;;;10480806;28;20024;-83
2022/08/09 11:09:39;;;;;;;4.25;2.80;;;;;;;;;;10478067;28;20036;-85
2022/08/09 11:14:55;;;;;;;4.00;2.30;;;;;;;;;;10474850;28;20021;-85
2022/08/09 11:25:55;;;;;;;3.88;2.50;;;;;;;;;;10473353;28;20037;-83
2022/08/09 11:30:56;;;;;;;6.57;2.45;;;;;;;;;;10476217;28;20500;-82
2022/08/09 11:35:58;;;;;;;6.75;3.88;;;;;;;;;;10474940;28;20492;-81
2022/08/09 11:46:55;;;;;;;4.03;2.78;;;;;;;;;;10475190;28;20025;-79
2022/08/09 11:52:01;;;;;;;4.50;2.70;;;;;;;;;;10475669;28;20047;-82
2022/08/09 11:57:21;;;;;;;5.72;2.30;;;;;;;;;;10475070;28;20111;-82
2022/08/09 12:02:23;;;;;;;3.70;2.35;;;;;;;;;;10478212;28;20013;-80
2022/08/09 12:07:28;;;;;;;5.90;2.53;;;;;;;;;;10478263;28;20036;-79
2022/08/09 12:12:43;;;;;;;3.83;2.53;;;;;;;;;;10485588;28;20025;-79
2022/08/09 12:17:47;;;;;;;15.02;3.28;;;;;;;;;;10504131;28;20036;-79
2022/08/09 12:22:49;;;;;;;4.10;2.63;;;;;;;;;;10506881;28;20029;-82
2022/08/09 12:28:07;;;;;;;6.00;2.70;;;;;;;;;;10503055;28;20123;-81
2022/08/09 12:33:08;;;;;;;4.30;3.30;;;;;;;;;;10482492;28;20037;-82
2022/08/09 12:38:19;;;;;;;2.83;2.25;;;;;;;;;;10479754;28;20054;-81
2022/08/09 12:43:22;;;;;;;5.68;2.30;;;;;;;;;;10482078;28;20021;-81
2022/08/09 12:48:26;;;;;;;9.88;2.92;;;;;;;;;;10496289;28;20033;-83
2022/08/09 12:53:27;;;;;;;3.45;2.10;;;;;;;;;;10476232;28;20032;-82
2022/08/09 12:58:28;;;;;;;6.03;5.38;;;;;;;;;;10475261;28;20043;-82
2022/08/09 13:03:34;;;;;;;5.85;2.50;;;;;;;;;;10474624;28;20025;-83
2022/08/09 13:08:35;;;;;;;4.25;2.78;;;;;;;;;;10458254;28;20060;-82
2022/08/09 13:13:44;;;;;;;4.78;3.03;;;;;;;;;;10471966;28;20499;-81
2022/08/09 13:18:46;;;;;;;4.60;2.40;;;;;;;;;;10475515;28;20106;-81
2022/08/09 13:23:48;;;;;;;4.30;2.25;;;;;;;;;;10474329;28;20032;-81
2022/08/09 13:29:28;;;;;;;3.05;2.10;;;;;;;;;;10473579;28;20060;-82
2022/08/09 13:34:40;;;;;;;7.00;4.30;;;;;;;;;;10436193;28;20071;-81
2022/08/09 13:39:42;;;;;;;4.80;3.47;;;;;;;;;;10469311;28;20025;-82
2022/08/09 13:44:46;;;;;;;4.35;2.30;;;;;;;;;;10468795;28;20041;-83
2022/08/09 13:49:48;;;;;;;4.38;2.38;;;;;;;;;;10466792;28;20033;-80
2022/08/09 13:54:56;;;;;;;5.80;2.25;;;;;;;;;;10469926;28;20041;-85
2022/08/09 13:59:57;;;;;;;6.78;2.40;;;;;;;;;;10474783;28;20466;-81
2022/08/09 14:04:58;;;;;;;5.22;2.42;;;;;;;;;;10474323;28;20080;-82
2022/08/09 14:09:59;;;;;;;4.47;2.40;;;;;;;;;;10473062;28;20032;-82
2022/08/09 14:15:00;;;;;;;6.47;3.17;;;;;;;;;;10473627;28;20033;-79
2022/08/09 14:20:01;;;;;;;10.07;2.83;;;;;;;;;;10473250;28;20521;-82
2022/08/09 14:25:04;;;;;;;4.40;2.10;;;;;;;;;;10478064;28;20029;-81
2022/08/09 14:30:05;;;;;;;3.13;2.38;;;;;;;;;;10483470;28;20036;-81
2022/08/09 14:35:07;;;;;;;5.13;2.55;;;;;;;;;;10482385;28;20122;-83
2022/08/09 14:40:11;;;;;;;3.55;2.10;;;;;;;;;;10495010;28;20101;-83
2022/08/09 14:45:30;;;;;;;5.45;2.38;;;;;;;;;;10505351;28;20084;-83
2022/08/09 14:50:48;;;;;;;31.17;27.65;;;;;;;;;;10495243;28;20028;-81
2022/08/09 14:55:53;;;;;;;2.33;2.05;;;;;;;;;;10485419;28;20040;-83
2022/08/09 15:01:09;;;;;;;3.95;2.58;;;;;;;;;;10487972;28;20021;-82
2022/08/09 15:06:42;;;;;;;4.10;2.15;;;;;;;;;;10486385;28;20037;-82
2022/08/09 15:12:30;;;;;;;4.70;2.33;;;;;;;;;;10482123;28;20097;-82
2022/08/09 15:18:10;;;;;;;18.67;13.50;;;;;;;;;;10467337;28;20112;-82
2022/08/09 15:23:19;;;;;;;4.60;3.15;;;;;;;;;;10461953;28;20052;-83
2022/08/09 15:28:47;;;;;;;5.57;2.42;;;;;;;;;;10442089;28;20033;-82
2022/08/09 15:33:49;;;;;;;4.13;2.75;;;;;;;;;;10484725;28;20039;-83
2022/08/09 15:38:50;;;;;;;3.40;2.50;;;;;;;;;;10488239;28;20033;-82
2022/08/09 15:43:51;;;;;;;4.22;2.40;;;;;;;;;;10482915;28;20041;-82
2022/08/09 15:48:52;;;;;;;3.38;2.28;;;;;;;;;;10479178;28;20045;-82
2022/08/09 15:53:53;;;;;;;5.32;2.67;;;;;;;;;;10475391;28;20086;-83
2022/08/09 15:58:54;;;;;;;5.03;2.55;;;;;;;;;;10475002;28;20036;-83
2022/08/09 16:03:56;;;;;;;3.40;2.00;;;;;;;;;;10476070;28;20075;-86
2022/08/09 16:08:58;;;;;;;3.20;2.20;;;;;;;;;;10477691;28;20060;-84
2022/08/09 16:13:59;;;;;;;5.45;2.60;;;;;;;;;;10478239;28;20028;-85
2022/08/09 16:19:01;;;;;;;3.08;2.40;;;;;;;;;;10480775;28;20029;-84
2022/08/09 16:24:04;;;;;;;4.53;2.35;;;;;;;;;;10474222;28;20025;-80
2022/08/09 16:29:07;;;;;;;10.48;8.38;;;;;;;;;;10469457;28;20021;-83
2022/08/09 16:34:08;;;;;;;6.13;3.83;;;;;;;;;;10478791;28;20402;-83
2022/08/09 16:39:09;;;;;;;3.00;2.67;;;;;;;;;;10486469;28;20024;-82
2022/08/09 16:44:15;;;;;;;3.63;2.30;;;;;;;;;;10494449;28;20094;-82
2022/08/09 16:49:16;;;;;;;3.40;2.08;;;;;;;;;;10474655;28;20043;-82
2022/08/09 16:54:17;;;;;;;4.97;2.00;;;;;;;;;;10472425;28;20591;-82
2022/08/09 16:59:24;;;;;;;2.30;2.10;;;;;;;;;;10471291;28;20128;-82
2022/08/09 17:04:29;;;;;;;4.60;1.95;;;;;;;;;;10472185;28;20041;-83
2022/08/09 17:09:31;;;;;;;2.78;1.85;;;;;;;;;;10477129;28;20071;-83
2022/08/09 17:14:54;;;;;;;3.88;2.45;;;;;;;;;;10389523;28;20510;-83
2022/08/09 17:20:00;;;;;;;2.65;1.80;;;;;;;;;;10445848;28;20044;-83
2022/08/09 17:25:27;;;;;;;1.83;1.65;;;;;;;;;;10473854;28;20036;-83
2022/08/09 17:30:52;;;;;;;2.03;1.65;;;;;;;;;;10476210;28;20021;-83
2022/08/09 17:53:47;;;;;;;3.13;1.80;;;;;;;;;;10415105;28;20049;-83
2022/08/09 18:04:49;;;;;;;3.17;1.70;;;;;;;;;;10251038;29;20048;-83
2022/08/09 18:09:59;;;;;;;3.72;1.50;;;;;;;;;;10405585;28;20037;-82
2022/08/09 18:15:43;;;;;;;10.48;6.22;;;;;;;;;;10490779;28;20048;-83
2022/08/09 18:21:15;;;;;;;4.18;2.10;;;;;;;;;;10320361;28;20056;-82
2022/08/09 18:26:21;;;;;;;4.05;1.90;;;;;;;;;;10493231;28;20093;-83
2022/08/09 18:31:40;;;;;;;3.58;1.67;;;;;;;;;;10497482;28;20029;-83
2022/08/09 18:36:49;;;;;;;2.63;1.60;;;;;;;;;;10486867;28;20052;-83
2022/08/09 18:41:51;;;;;;;3.92;1.80;;;;;;;;;;10519181;22;20013;-83
2022/08/09 18:46:58;;;;;;;2.42;1.60;;;;;;;;;;10505129;28;20017;-82
2022/08/09 18:52:03;;;;;;;4.15;1.80;;;;;;;;;;10504307;28;20040;-83
2022/08/09 18:57:06;;;;;;;3.13;1.73;;;;;;;;;;10492267;28;20041;-83
2022/08/09 19:02:09;;;;;;;2.33;1.60;;;;;;;;;;10488867;28;20025;-83
2022/08/09 19:07:39;;;;;;;2.70;1.60;;;;;;;;;;10495971;28;20032;-82
2022/08/09 19:12:48;;;;;;;4.03;1.73;;;;;;;;;;10496144;28;20051;-82
2022/08/09 19:17:55;;;;;;;5.47;1.40;;;;;;;;;;10500672;28;20028;-83
2022/08/09 19:23:02;;;;;;;2.83;1.50;;;;;;;;;;10503940;28;20544;-82
